createdAt,value
2023-05-10T00:01:53.347Z,4.00
2023-05-10T00:04:22.483Z,3.97
2023-05-10T00:06:50.959Z,4.37
2023-05-10T00:09:19.087Z,4.47
2023-05-10T00:11:47.252Z,4.07
2023-05-10T00:14:15.337Z,4.20
2023-05-10T00:16:43.859Z,4.27
2023-05-10T00:19:12.469Z,4.13
2023-05-10T00:21:40.573Z,4.40
2023-05-10T00:24:09.211Z,4.67
2023-05-10T00:26:37.322Z,4.10
2023-05-10T00:29:05.422Z,4.27
2023-05-10T00:31:33.837Z,4.17
2023-05-10T00:34:02.486Z,4.50
2023-05-10T00:36:32.421Z,5.70
2023-05-10T00:39:01.528Z,4.37
2023-05-10T00:41:30.047Z,4.30
2023-05-10T00:43:58.116Z,4.87
2023-05-10T00:46:26.624Z,4.40
2023-05-10T00:48:55.525Z,4.47
2023-05-10T00:51:24.023Z,3.73
2023-05-10T00:53:52.586Z,4.20
2023-05-10T00:56:21.562Z,4.77
2023-05-10T00:58:50.030Z,4.83
2023-05-10T01:01:18.547Z,4.23
2023-05-10T01:03:47.902Z,4.60
2023-05-10T01:06:21.080Z,4.53
2023-05-10T01:08:49.667Z,4.50
2023-05-10T01:11:17.812Z,4.00
2023-05-10T01:13:53.712Z,4.30
2023-05-10T01:16:22.535Z,4.57
2023-05-10T01:18:51.889Z,4.43
2023-05-10T01:21:30.716Z,4.40
2023-05-10T01:24:17.183Z,4.33
2023-05-10T01:27:09.834Z,4.40
2023-05-10T01:30:13.620Z,4.50
2023-05-10T01:33:35.704Z,4.43
2023-05-10T01:36:42.067Z,4.23
2023-05-10T01:40:00.620Z,4.67
2023-05-10T01:42:39.617Z,4.40
2023-05-10T01:45:41.478Z,4.40
2023-05-10T01:48:12.608Z,4.00
2023-05-10T01:50:45.677Z,4.73
2023-05-10T01:53:16.038Z,4.90
2023-05-10T01:55:49.862Z,4.67
2023-05-10T01:58:30.807Z,4.90
2023-05-10T02:01:02.807Z,4.40
2023-05-10T02:03:31.450Z,5.10
2023-05-10T02:06:01.206Z,4.30
2023-05-10T02:08:29.934Z,4.70
2023-05-10T02:10:59.819Z,4.37
2023-05-10T02:13:30.103Z,5.00
2023-05-10T02:15:59.887Z,3.77
2023-05-10T02:18:29.242Z,4.20
2023-05-10T02:20:58.705Z,4.33
2023-05-10T02:23:28.424Z,4.60
2023-05-10T02:25:58.779Z,4.60
2023-05-10T02:28:28.096Z,4.20
2023-05-10T02:30:57.262Z,4.57
2023-05-10T02:33:26.588Z,4.40
2023-05-10T02:35:55.109Z,4.60
2023-05-10T02:38:24.213Z,4.30
2023-05-10T02:40:54.260Z,4.53
2023-05-10T02:43:25.225Z,4.53
2023-05-10T02:45:53.406Z,4.23
2023-05-10T02:48:21.847Z,4.23
2023-05-10T02:50:53.301Z,4.20
2023-05-10T02:53:25.721Z,3.97
2023-05-10T02:55:57.001Z,6.87
2023-05-10T02:58:25.457Z,4.07
2023-05-10T03:00:53.578Z,4.00
2023-05-10T03:03:22.371Z,4.37
2023-05-10T03:05:50.808Z,4.57
2023-05-10T03:08:19.393Z,4.10
2023-05-10T03:11:39.354Z,4.47
2023-05-10T03:14:33.600Z,4.03
2023-05-10T03:17:41.243Z,4.40
2023-05-10T03:20:13.349Z,4.50
2023-05-10T03:22:49.938Z,4.27
2023-05-10T03:25:20.276Z,4.47
2023-05-10T03:27:49.009Z,4.63
2023-05-10T03:30:17.826Z,4.40
2023-05-10T03:32:46.579Z,5.00
2023-05-10T03:35:15.418Z,4.60
2023-05-10T03:37:43.955Z,4.70
2023-05-10T03:40:12.637Z,4.57
2023-05-10T03:42:41.070Z,4.77
2023-05-10T03:45:10.734Z,3.93
2023-05-10T03:47:39.229Z,4.43
2023-05-10T03:50:08.382Z,4.03
2023-05-10T03:52:36.858Z,3.53
2023-05-10T03:55:05.686Z,4.50
2023-05-10T03:57:34.172Z,4.73
2023-05-10T04:00:04.097Z,4.57
2023-05-10T04:02:32.385Z,4.37
2023-05-10T04:05:00.985Z,4.33
2023-05-10T04:07:29.105Z,4.33
2023-05-10T04:09:57.203Z,4.70
2023-05-10T04:12:25.317Z,4.90
2023-05-10T04:14:53.446Z,4.73
2023-05-10T04:17:22.014Z,4.63
2023-05-10T04:19:50.526Z,4.00
2023-05-10T04:22:19.032Z,4.40
2023-05-10T04:24:47.567Z,4.70
2023-05-10T04:27:15.681Z,4.20
2023-05-10T04:29:44.155Z,4.40
2023-05-10T04:32:12.279Z,3.63
2023-05-10T04:34:40.464Z,4.10
2023-05-10T04:37:08.957Z,4.40
2023-05-10T04:39:37.697Z,3.90
2023-05-10T04:42:07.346Z,4.43
2023-05-10T04:44:35.661Z,4.53
2023-05-10T04:47:04.303Z,4.17
2023-05-10T04:49:32.549Z,4.10
2023-05-10T04:52:00.718Z,3.80
2023-05-10T04:54:28.817Z,4.20
2023-05-10T04:56:56.962Z,4.63
2023-05-10T04:59:25.449Z,4.20
2023-05-10T05:01:53.600Z,4.07
2023-05-10T05:04:21.780Z,4.40
2023-05-10T05:06:51.724Z,4.03
2023-05-10T05:09:21.775Z,3.80
2023-05-10T05:11:50.042Z,3.50
2023-05-10T05:14:18.163Z,4.53
2023-05-10T05:16:46.707Z,4.47
2023-05-10T05:19:15.300Z,4.33
2023-05-10T05:21:43.803Z,4.00
2023-05-10T05:24:13.704Z,3.97
2023-05-10T05:26:42.534Z,4.70
2023-05-10T05:29:10.693Z,3.53
2023-05-10T05:31:38.903Z,3.70
2023-05-10T05:34:07.096Z,4.10
2023-05-10T05:36:40.405Z,3.43
2023-05-10T05:39:08.983Z,4.20
2023-05-10T05:41:37.553Z,4.00
2023-05-10T05:44:06.100Z,3.17
2023-05-10T05:46:34.593Z,3.30
2023-05-10T05:49:03.259Z,3.83
2023-05-10T05:51:31.993Z,2.93
2023-05-10T05:54:00.451Z,2.80
2023-05-10T05:56:28.932Z,3.47
2023-05-10T05:58:57.596Z,2.87
2023-05-10T06:01:26.035Z,3.10
2023-05-10T06:03:54.630Z,3.80
2023-05-10T06:06:23.262Z,3.20
2023-05-10T06:08:52.383Z,3.67
2023-05-10T06:11:22.081Z,3.30
2023-05-10T06:13:50.808Z,3.73
2023-05-10T06:16:19.485Z,3.00
2023-05-10T06:18:47.949Z,3.70
2023-05-10T06:21:17.239Z,3.33
2023-05-10T06:23:46.034Z,3.23
2023-05-10T06:26:14.877Z,2.93
2023-05-10T06:28:43.638Z,3.20
2023-05-10T06:31:12.890Z,3.47
2023-05-10T06:33:41.259Z,3.30
2023-05-10T06:36:09.948Z,3.00
2023-05-10T06:38:38.434Z,3.07
2023-05-10T06:41:06.914Z,3.40
2023-05-10T06:43:35.861Z,3.50
2023-05-10T06:46:04.491Z,3.30
2023-05-10T06:48:33.560Z,3.53
2023-05-10T06:51:02.061Z,4.10
2023-05-10T06:53:31.320Z,3.40
2023-05-10T06:55:59.824Z,3.07
2023-05-10T06:58:28.846Z,3.23
2023-05-10T07:01:03.781Z,3.40
2023-05-10T07:03:32.309Z,3.20
2023-05-10T07:06:05.464Z,3.37
2023-05-10T07:08:34.370Z,3.23
2023-05-10T07:11:08.151Z,2.77
2023-05-10T07:13:37.361Z,3.00
2023-05-10T07:16:07.412Z,3.30
2023-05-10T07:18:36.369Z,2.90
2023-05-10T07:21:05.256Z,3.50
2023-05-10T07:23:33.975Z,3.27
2023-05-10T07:26:03.292Z,3.43
2023-05-10T07:28:31.804Z,3.10
2023-05-10T07:31:00.315Z,3.73
2023-05-10T07:33:28.856Z,3.40
2023-05-10T07:35:57.369Z,3.27
2023-05-10T07:38:25.854Z,3.23
2023-05-10T07:40:54.361Z,3.20
2023-05-10T07:43:22.891Z,3.00
2023-05-10T07:45:55.442Z,3.47
2023-05-10T07:48:24.700Z,3.23
2023-05-10T07:50:53.183Z,3.23
2023-05-10T07:53:21.775Z,3.10
2023-05-10T07:55:53.873Z,3.33
2023-05-10T07:58:22.351Z,3.30
2023-05-10T08:00:50.837Z,3.10
2023-05-10T08:03:19.467Z,3.57
2023-05-10T08:05:48.123Z,3.63
2023-05-10T08:08:16.337Z,3.30
2023-05-10T08:10:44.876Z,3.67
2023-05-10T08:13:13.337Z,2.53
2023-05-10T08:15:41.875Z,4.10
2023-05-10T08:18:10.501Z,2.93
2023-05-10T08:20:39.023Z,3.67
2023-05-10T08:23:09.516Z,3.10
2023-05-10T08:25:38.170Z,3.67
2023-05-10T08:28:06.702Z,3.40
2023-05-10T08:30:35.167Z,3.33
2023-05-10T08:33:03.697Z,3.73
2023-05-10T08:35:32.476Z,3.50
2023-05-10T08:38:04.785Z,3.47
2023-05-10T08:40:33.026Z,3.73
2023-05-10T08:43:11.253Z,3.67
2023-05-10T08:45:48.097Z,3.10
2023-05-10T08:48:17.625Z,3.87
2023-05-10T08:50:49.190Z,3.10
2023-05-10T08:53:18.672Z,3.17
2023-05-10T08:55:47.179Z,3.33
2023-05-10T08:58:15.621Z,4.43
2023-05-10T09:00:44.336Z,3.70
2023-05-10T09:03:12.881Z,3.73
2023-05-10T09:05:42.374Z,3.77
2023-05-10T09:08:11.618Z,4.10
2023-05-10T09:10:40.959Z,3.80
2023-05-10T09:13:12.641Z,4.30
2023-05-10T09:15:41.539Z,4.23
2023-05-10T09:18:10.305Z,3.63
2023-05-10T09:20:38.875Z,4.20
2023-05-10T09:23:07.733Z,3.83
2023-05-10T09:25:36.627Z,4.27
2023-05-10T09:28:05.199Z,4.00
2023-05-10T09:30:33.982Z,3.57
2023-05-10T09:33:02.873Z,4.60
2023-05-10T09:35:33.828Z,4.80
2023-05-10T09:38:07.347Z,4.30
2023-05-10T09:40:35.998Z,4.63
2023-05-10T09:43:09.780Z,5.10
2023-05-10T09:45:39.096Z,5.20
2023-05-10T09:48:08.464Z,5.30
2023-05-10T09:50:37.395Z,5.70
2023-05-10T09:53:06.313Z,5.40
2023-05-10T09:55:50.276Z,5.97
2023-05-10T09:58:18.820Z,5.30
2023-05-10T10:00:52.400Z,5.47
2023-05-10T10:03:23.664Z,5.33
2023-05-10T10:05:52.249Z,5.40
2023-05-10T10:08:21.431Z,5.77
2023-05-10T10:10:51.452Z,5.87
2023-05-10T10:13:19.972Z,5.50
2023-05-10T10:15:52.237Z,5.73
2023-05-10T10:18:24.545Z,5.97
2023-05-10T10:20:53.083Z,4.80
2023-05-10T10:23:21.558Z,5.17
2023-05-10T10:25:50.588Z,5.47
2023-05-10T10:28:38.013Z,5.93
2023-05-10T10:31:40.642Z,5.80
2023-05-10T10:34:12.120Z,6.03
2023-05-10T10:36:49.125Z,6.10
2023-05-10T10:39:18.040Z,6.43
2023-05-10T10:41:53.190Z,5.63
2023-05-10T10:44:34.621Z,5.87
2023-05-10T10:47:19.578Z,5.50
2023-05-10T10:50:04.429Z,5.63
2023-05-10T10:52:42.360Z,6.10
2023-05-10T10:55:23.595Z,6.07
2023-05-10T10:58:01.519Z,5.93
2023-05-10T11:00:31.953Z,6.07
2023-05-10T11:03:08.507Z,5.70
2023-05-10T11:05:53.571Z,5.40
2023-05-10T11:08:37.466Z,6.13
2023-05-10T11:11:09.145Z,5.43
2023-05-10T11:13:41.634Z,5.90
2023-05-10T11:16:20.997Z,6.07
2023-05-10T11:19:07.688Z,5.87
2023-05-10T11:21:46.653Z,5.80
2023-05-10T11:24:21.354Z,6.13
2023-05-10T11:26:53.294Z,6.27
2023-05-10T11:29:22.080Z,6.97
2023-05-10T11:31:51.523Z,6.90
2023-05-10T11:34:31.912Z,6.57
2023-05-10T11:37:00.825Z,8.07
2023-05-10T11:39:31.143Z,7.00
2023-05-10T11:42:01.204Z,7.53
2023-05-10T11:44:35.925Z,6.83
2023-05-10T11:47:04.837Z,7.00
2023-05-10T11:49:33.304Z,8.33
2023-05-10T11:52:12.170Z,7.50
2023-05-10T11:54:46.929Z,6.87
2023-05-10T11:57:15.549Z,6.43
2023-05-10T11:59:44.005Z,6.57
2023-05-10T12:02:12.928Z,8.20
2023-05-10T12:04:41.584Z,6.77
2023-05-10T12:07:10.294Z,7.33
2023-05-10T12:09:43.757Z,7.07
2023-05-10T12:12:17.847Z,5.80
2023-05-10T12:14:46.339Z,6.70
2023-05-10T12:17:15.313Z,7.17
2023-05-10T12:19:44.804Z,8.73
2023-05-10T12:22:13.399Z,6.97
2023-05-10T12:24:41.875Z,6.90
2023-05-10T12:27:13.431Z,7.07
2023-05-10T12:29:45.908Z,6.70
2023-05-10T12:32:14.550Z,8.50
2023-05-10T12:34:43.049Z,7.23
2023-05-10T12:37:11.490Z,7.70
2023-05-10T12:39:47.127Z,7.00
2023-05-10T12:42:15.803Z,6.97
2023-05-10T12:44:44.539Z,6.10
2023-05-10T12:47:13.015Z,6.20
2023-05-10T12:49:41.519Z,6.50
2023-05-10T12:52:10.047Z,6.13
2023-05-10T12:54:38.466Z,5.83
2023-05-10T12:57:06.932Z,5.83
2023-05-10T12:59:37.470Z,6.73
2023-05-10T13:02:06.944Z,7.07
2023-05-10T13:04:38.572Z,6.53
2023-05-10T13:07:07.816Z,6.27
2023-05-10T13:09:36.532Z,6.63
2023-05-10T13:12:05.883Z,6.03
2023-05-10T13:14:35.108Z,6.07
2023-05-10T13:17:03.673Z,6.43
2023-05-10T13:19:32.156Z,7.33
2023-05-10T13:22:00.657Z,4.93
2023-05-10T13:24:29.247Z,6.27
2023-05-10T13:26:57.719Z,4.77
2023-05-10T13:29:26.279Z,5.87
2023-05-10T13:31:54.839Z,5.90
2023-05-10T13:34:23.409Z,5.20
2023-05-10T13:36:52.086Z,5.30
2023-05-10T13:39:20.986Z,5.20
2023-05-10T13:41:49.845Z,4.90
2023-05-10T13:44:18.436Z,4.80
2023-05-10T13:46:47.523Z,5.10
2023-05-10T13:49:16.282Z,4.90
2023-05-10T13:51:46.675Z,5.40
2023-05-10T13:54:15.223Z,5.17
2023-05-10T13:56:45.012Z,4.73
2023-05-10T13:59:13.522Z,4.10
2023-05-10T14:01:43.733Z,4.07
2023-05-10T14:04:12.257Z,4.80
2023-05-10T14:06:40.811Z,4.37
2023-05-10T14:09:09.735Z,4.30
2023-05-10T14:11:38.248Z,4.90
2023-05-10T14:14:06.687Z,4.23
2023-05-10T14:16:35.233Z,4.87
2023-05-10T14:19:03.892Z,4.57
2023-05-10T14:21:32.391Z,3.50
2023-05-10T14:24:00.853Z,2.57
2023-05-10T14:26:29.443Z,2.07
2023-05-10T14:28:58.445Z,1.93
2023-05-10T14:31:26.932Z,1.60
2023-05-10T14:33:55.649Z,1.80
2023-05-10T14:36:24.389Z,1.47
2023-05-10T14:38:52.899Z,1.53
2023-05-10T14:41:21.398Z,1.60
2023-05-10T14:43:49.897Z,1.87
2023-05-10T14:46:18.470Z,2.03
2023-05-10T14:48:47.066Z,2.27
2023-05-10T14:51:15.717Z,1.90
2023-05-10T14:53:44.661Z,2.17
2023-05-10T14:56:13.179Z,2.33
2023-05-10T14:58:41.781Z,2.70
2023-05-10T15:01:10.350Z,2.70
2023-05-10T15:03:39.319Z,5.37
2023-05-10T15:06:08.416Z,2.90
2023-05-10T15:08:36.868Z,3.77
2023-05-10T15:11:05.384Z,3.63
2023-05-10T15:13:33.868Z,3.90
2023-05-10T15:16:02.377Z,4.67
2023-05-10T15:18:30.928Z,3.13
2023-05-10T15:20:59.883Z,2.53
2023-05-10T15:23:28.381Z,2.13
2023-05-10T15:25:56.993Z,2.00
2023-05-10T15:28:25.479Z,1.87
2023-05-10T15:30:53.960Z,1.70
2023-05-10T15:33:22.420Z,1.40
2023-05-10T15:35:50.621Z,1.60
2023-05-10T15:38:19.212Z,1.73
2023-05-10T15:40:47.690Z,1.60
2023-05-10T15:43:16.204Z,1.90
2023-05-10T15:45:44.706Z,1.50
2023-05-10T15:48:13.160Z,2.20
2023-05-10T15:50:42.352Z,1.77
2023-05-10T15:53:10.975Z,1.67
2023-05-10T15:55:39.472Z,1.50
2023-05-10T15:58:08.171Z,1.60
2023-05-10T16:00:36.673Z,1.50
2023-05-10T16:03:05.300Z,1.47
2023-05-10T16:05:34.167Z,1.60
2023-05-10T16:08:03.174Z,2.03
2023-05-10T16:10:34.259Z,1.63
2023-05-10T16:13:03.808Z,1.50
2023-05-10T16:15:34.015Z,1.37
2023-05-10T16:18:02.933Z,1.60
2023-05-10T16:20:31.617Z,1.60
2023-05-10T16:23:08.533Z,1.60
2023-05-10T16:25:36.816Z,1.47
2023-05-10T16:28:05.450Z,1.40
2023-05-10T16:30:34.071Z,1.80
2023-05-10T16:33:03.452Z,1.40
2023-05-10T16:35:32.030Z,1.20
2023-05-10T16:38:00.522Z,1.60
2023-05-10T16:40:28.991Z,1.53
2023-05-10T16:42:58.084Z,1.50
2023-05-10T16:45:27.043Z,1.30
2023-05-10T16:47:55.913Z,1.10
2023-05-10T16:50:24.174Z,1.47
2023-05-10T16:52:52.700Z,1.43
2023-05-10T16:55:22.064Z,1.33
2023-05-10T16:57:52.823Z,1.60
2023-05-10T17:00:21.646Z,1.53
2023-05-10T17:02:50.223Z,1.50
2023-05-10T17:05:18.802Z,1.40
2023-05-10T17:07:47.460Z,1.40
2023-05-10T17:10:16.345Z,1.60
2023-05-10T17:12:45.058Z,2.00
2023-05-10T17:15:13.631Z,1.83
2023-05-10T17:17:42.206Z,1.63
2023-05-10T17:20:11.122Z,1.63
2023-05-10T17:22:39.633Z,2.10
2023-05-10T17:25:08.624Z,2.30
2023-05-10T17:27:37.132Z,1.87
2023-05-10T17:30:05.980Z,1.93
2023-05-10T17:32:34.561Z,1.97
2023-05-10T17:35:03.849Z,2.33
2023-05-10T17:37:33.082Z,2.53
2023-05-10T17:40:01.968Z,2.60
2023-05-10T17:42:30.480Z,2.40
2023-05-10T17:44:58.943Z,2.40
2023-05-10T17:47:27.953Z,2.60
2023-05-10T17:49:56.437Z,2.70
2023-05-10T17:52:24.990Z,2.60
2023-05-10T17:54:53.498Z,2.87
2023-05-10T17:57:22.536Z,2.37
2023-05-10T17:59:50.996Z,2.33
2023-05-10T18:02:19.451Z,3.10
2023-05-10T18:04:48.935Z,3.27
2023-05-10T18:07:17.554Z,3.00
2023-05-10T18:09:46.025Z,2.90
2023-05-10T18:12:14.479Z,3.10
2023-05-10T18:14:42.940Z,3.70
2023-05-10T18:17:11.645Z,3.23
2023-05-10T18:19:40.745Z,3.47
2023-05-10T18:22:10.804Z,3.20
2023-05-10T18:24:40.081Z,3.80
2023-05-10T18:27:10.025Z,3.87
2023-05-10T18:29:38.695Z,3.57
2023-05-10T18:32:07.656Z,3.80
2023-05-10T18:34:36.215Z,4.43
2023-05-10T18:37:07.812Z,3.90
2023-05-10T18:39:37.861Z,4.10
2023-05-10T18:42:07.422Z,4.30
2023-05-10T18:44:36.001Z,4.27
2023-05-10T18:47:04.499Z,4.27
2023-05-10T18:49:33.039Z,4.87
2023-05-10T18:52:01.513Z,5.03
2023-05-10T18:54:30.122Z,4.10
2023-05-10T18:56:58.801Z,3.83
2023-05-10T18:59:28.140Z,3.90
2023-05-10T19:01:57.497Z,4.17
2023-05-10T19:04:26.364Z,4.10
2023-05-10T19:06:55.941Z,3.60
2023-05-10T19:09:24.831Z,3.90
2023-05-10T19:11:53.743Z,3.83
2023-05-10T19:14:22.569Z,4.27
2023-05-10T19:16:51.184Z,4.10
2023-05-10T19:19:21.275Z,4.40
2023-05-10T19:21:50.024Z,4.13
2023-05-10T19:24:19.694Z,4.30
2023-05-10T19:26:48.743Z,4.73
2023-05-10T19:29:17.487Z,4.80
2023-05-10T19:31:47.051Z,4.40
2023-05-10T19:34:15.605Z,4.40
2023-05-10T19:36:44.057Z,4.60
2023-05-10T19:39:13.365Z,5.03
2023-05-10T19:41:41.826Z,5.60
2023-05-10T19:44:10.371Z,5.10
2023-05-10T19:46:38.853Z,5.33
2023-05-10T19:49:07.761Z,5.80
2023-05-10T19:51:36.301Z,5.17
2023-05-10T19:54:04.874Z,5.30
2023-05-10T19:56:33.378Z,5.43
2023-05-10T19:59:03.278Z,6.07
2023-05-10T20:01:32.918Z,5.73
2023-05-10T20:04:01.543Z,5.43
2023-05-10T20:06:30.064Z,7.47
2023-05-10T20:08:58.535Z,7.10
2023-05-10T20:11:27.051Z,7.50
2023-05-10T20:13:55.517Z,7.80
2023-05-10T20:16:26.623Z,7.07
2023-05-10T20:18:55.594Z,7.13
2023-05-10T20:21:24.167Z,6.53
2023-05-10T20:23:52.699Z,7.33
2023-05-10T20:26:21.712Z,6.60
2023-05-10T20:28:51.186Z,6.87
2023-05-10T20:31:19.680Z,6.63
2023-05-10T20:33:48.125Z,6.63
2023-05-10T20:36:16.796Z,7.13
2023-05-10T20:38:45.243Z,6.67
2023-05-10T20:41:13.688Z,6.40
2023-05-10T20:43:41.847Z,7.27
2023-05-10T20:46:10.389Z,7.43
2023-05-10T20:48:39.124Z,6.67
2023-05-10T20:51:07.819Z,7.70
2023-05-10T20:53:36.296Z,7.70
2023-05-10T20:56:04.740Z,8.07
2023-05-10T20:58:33.378Z,7.60
2023-05-10T21:01:03.712Z,7.47
2023-05-10T21:03:32.395Z,7.30
2023-05-10T21:06:00.948Z,7.43
2023-05-10T21:08:29.493Z,6.67
2023-05-10T21:10:58.001Z,6.73
2023-05-10T21:13:26.518Z,7.63
2023-05-10T21:15:55.198Z,6.97
2023-05-10T21:18:23.764Z,6.90
2023-05-10T21:20:52.249Z,7.97
2023-05-10T21:23:20.789Z,6.40
2023-05-10T21:25:49.319Z,7.80
2023-05-10T21:28:17.408Z,7.10
2023-05-10T21:30:46.338Z,6.93
2023-05-10T21:33:14.974Z,7.47
2023-05-10T21:35:44.174Z,7.43
2023-05-10T21:38:12.707Z,7.00
2023-05-10T21:40:41.261Z,6.77
2023-05-10T21:43:11.268Z,7.80
2023-05-10T21:45:39.827Z,7.10
2023-05-10T21:48:08.361Z,7.33
2023-05-10T21:50:36.886Z,7.57
2023-05-10T21:53:05.381Z,7.03
2023-05-10T21:55:34.365Z,7.23
2023-05-10T21:58:02.880Z,7.27
2023-05-10T22:00:32.830Z,7.30
2023-05-10T22:03:02.664Z,7.37
2023-05-10T22:05:31.269Z,7.97
2023-05-10T22:07:59.940Z,8.13
2023-05-10T22:10:28.463Z,8.13
2023-05-10T22:12:57.297Z,8.87
2023-05-10T22:15:25.803Z,8.27
2023-05-10T22:17:54.435Z,8.27
2023-05-10T22:20:22.977Z,9.57
2023-05-10T22:22:51.472Z,8.30
2023-05-10T22:25:20.157Z,8.53
2023-05-10T22:27:48.612Z,8.73
2023-05-10T22:30:17.206Z,8.87
2023-05-10T22:32:46.483Z,9.20
2023-05-10T22:35:15.025Z,9.30
2023-05-10T22:37:43.469Z,8.80
2023-05-10T22:40:12.463Z,8.47
2023-05-10T22:42:41.049Z,9.93
2023-05-10T22:45:10.178Z,8.67
2023-05-10T22:47:38.843Z,9.23
2023-05-10T22:50:07.907Z,7.83
2023-05-10T22:52:38.882Z,9.43
2023-05-10T22:55:08.305Z,8.27
2023-05-10T22:57:36.898Z,8.93
2023-05-10T23:00:06.293Z,8.03
2023-05-10T23:02:34.559Z,8.27
2023-05-10T23:05:03.277Z,7.90
2023-05-10T23:07:31.921Z,8.03
2023-05-10T23:10:00.452Z,8.00
2023-05-10T23:12:31.298Z,8.57
2023-05-10T23:14:59.720Z,9.07
2023-05-10T23:17:28.435Z,8.80
2023-05-10T23:19:56.648Z,8.37
2023-05-10T23:22:25.113Z,8.83
2023-05-10T23:24:53.543Z,8.73
2023-05-10T23:27:22.528Z,8.77
2023-05-10T23:29:52.489Z,8.87
2023-05-10T23:32:20.975Z,9.03
2023-05-10T23:34:49.141Z,9.17
2023-05-10T23:37:18.029Z,8.97
2023-05-10T23:39:46.651Z,9.20
2023-05-10T23:42:15.151Z,8.60
2023-05-10T23:44:43.628Z,8.93
2023-05-10T23:47:12.163Z,9.13
2023-05-10T23:49:42.090Z,8.80
2023-05-10T23:52:10.781Z,8.53
2023-05-10T23:54:39.333Z,8.10
2023-05-10T23:57:07.875Z,8.50
2023-05-10T23:59:36.358Z,8.77
